Ashfield, Pennsylvania
Current Conditions -  °F | °C
As of 8:51 AM on Monday 24 Nov 2014 (Local Time) from KABE Reporting Station
Overcast Overcast  
Wind Chill: 67°   Ceiling: 2500
Heat Index: 67°   Visibility: 10mi
Dew Point: 59°   Wind: 15mph
Humidity: 76%   Direction: 200°SSW
Pressure: 29.64"   Gusts: 22mph
Location:  40.78°N, 75.71°W
Report Text: KABE 241351Z 20013G19KT 10SM OVC025 19/15 A2964 RMK AO2 SLP036 T01940150
Loading
Personal Weather Stations






























Interactive Weather Map New forecast layout! Learn more

10-Day Weather Forecast

Advertisements
Track Severe Weather on mobile